Time;durP1;ratioP1;P1;durP2;ratioP2;P2;SDS_P1;SDS_P2;PMS_P1;PMS_P2;Temp;Humidity;BMP_temperature;BMP_pressure;BME280_temperature;BME280_humidity;BME280_pressure;Samples;Min_cycle;Max_cycle;Signal;HPM_P1;HPM_P2
2021/06/11 00:01:46;;;;;;;5.05;3.05;;;19.10;90.20;;;;;;5047022;28;20045;-69
2021/06/11 00:04:12;;;;;;;4.82;3.50;;;19.00;90.40;;;;;;5047689;28;20136;-69
2021/06/11 00:06:39;;;;;;;4.57;3.38;;;19.00;90.40;;;;;;5047743;28;20140;-69
2021/06/11 00:09:07;;;;;;;5.03;3.47;;;18.90;90.50;;;;;;5051756;28;20379;-69
2021/06/11 00:11:34;;;;;;;5.88;3.17;;;18.90;90.70;;;;;;5049271;28;20053;-69
2021/06/11 00:14:01;;;;;;;3.70;3.10;;;18.80;90.70;;;;;;5047624;28;20111;-69
2021/06/11 00:16:27;;;;;;;5.13;3.55;;;18.80;90.70;;;;;;5046789;28;20442;-69
2021/06/11 00:18:54;;;;;;;5.07;3.50;;;18.80;90.90;;;;;;5049839;28;20049;-69
2021/06/11 00:21:21;;;;;;;6.85;3.58;;;18.80;90.80;;;;;;5044586;28;20037;-69
2021/06/11 00:23:48;;;;;;;6.05;3.63;;;18.80;90.90;;;;;;5047878;28;20403;-69
2021/06/11 00:26:15;;;;;;;5.88;3.50;;;18.80;90.90;;;;;;5044641;28;20066;-69
2021/06/11 00:28:41;;;;;;;4.53;3.42;;;18.80;90.90;;;;;;5048801;28;20136;-69
2021/06/11 00:31:08;;;;;;;4.78;3.70;;;18.70;90.90;;;;;;5045151;28;20087;-69
2021/06/11 00:33:35;;;;;;;6.43;3.75;;;18.70;90.80;;;;;;5070908;28;20049;-69
2021/06/11 00:36:01;;;;;;;4.95;3.70;;;18.70;90.80;;;;;;5046014;28;20531;-69
2021/06/11 00:38:31;;;;;;;5.15;3.95;;;18.60;90.90;;;;;;5045995;28;20065;-69
2021/06/11 00:40:58;;;;;;;6.65;4.00;;;18.60;90.90;;;;;;5045986;28;20107;-69
2021/06/11 00:43:25;;;;;;;5.17;3.27;;;18.60;90.90;;;;;;5044640;28;20140;-69
2021/06/11 00:45:51;;;;;;;5.88;3.45;;;18.60;90.90;;;;;;5041056;28;20069;-69
2021/06/11 00:48:18;;;;;;;4.65;3.50;;;18.60;90.90;;;;;;5077680;28;20408;-69
2021/06/11 00:50:45;;;;;;;3.78;2.85;;;18.50;90.80;;;;;;5048632;28;20123;-69
2021/06/11 00:53:12;;;;;;;3.90;2.80;;;18.50;90.90;;;;;;5048007;28;20453;-69
2021/06/11 00:55:45;;;;;;;3.50;2.75;;;18.50;90.90;;;;;;5048461;28;20044;-69
2021/06/11 00:58:15;;;;;;;3.40;2.60;;;18.40;90.90;;;;;;5047787;28;20068;-69
2021/06/11 01:00:42;;;;;;;5.47;2.95;;;18.40;90.90;;;;;;5047908;28;20456;-69
2021/06/11 01:03:11;;;;;;;5.22;3.47;;;18.40;91.00;;;;;;5047161;28;20045;-69
2021/06/11 01:05:41;;;;;;;4.85;3.28;;;18.40;91.10;;;;;;5048256;28;20088;-69
2021/06/11 01:08:13;;;;;;;4.22;3.20;;;18.30;91.30;;;;;;5045295;28;20064;-69
2021/06/11 01:10:42;;;;;;;5.80;3.38;;;18.20;91.30;;;;;;5048842;28;20143;-69
2021/06/11 01:13:09;;;;;;;4.95;3.22;;;18.10;91.30;;;;;;5046261;28;20135;-69
2021/06/11 01:15:36;;;;;;;4.22;3.28;;;18.10;91.40;;;;;;5047706;28;20098;-69
2021/06/11 01:18:03;;;;;;;8.98;3.55;;;18.10;91.40;;;;;;5046103;28;20072;-69
2021/06/11 01:20:31;;;;;;;6.07;3.80;;;18.00;91.40;;;;;;5048670;28;20072;-69
2021/06/11 01:23:28;;;;;;;5.60;3.90;;;18.00;91.40;;;;;;5073024;28;20461;-69
2021/06/11 01:26:21;;;;;;;5.00;3.60;;;18.00;91.40;;;;;;5045029;28;20085;-69
2021/06/11 01:28:50;;;;;;;4.60;2.90;;;18.00;91.30;;;;;;5051122;28;20077;-69
2021/06/11 01:31:19;;;;;;;3.80;2.70;;;17.90;91.20;;;;;;5051935;28;20505;-69
2021/06/11 01:33:51;;;;;;;3.53;2.35;;;17.90;91.20;;;;;;5052921;28;20099;-69
2021/06/11 01:36:23;;;;;;;3.72;2.72;;;17.90;91.50;;;;;;5051263;28;20041;-69
2021/06/11 01:38:52;;;;;;;3.97;3.03;;;17.90;91.20;;;;;;5050350;28;20088;-69
2021/06/11 01:41:20;;;;;;;4.38;2.90;;;17.90;91.20;;;;;;5048339;28;20069;-69
2021/06/11 01:43:52;;;;;;;3.22;2.35;;;17.90;91.20;;;;;;5049602;28;20072;-69
2021/06/11 01:46:23;;;;;;;4.22;2.70;;;17.80;91.50;;;;;;5050601;28;20076;-69
2021/06/11 01:48:51;;;;;;;6.60;3.90;;;17.80;91.20;;;;;;5052127;28;20438;-69
2021/06/11 01:51:19;;;;;;;;;;;17.80;91.20;;;;;;5048415;28;20353;-69
2021/06/11 01:53:48;;;;;;;4.38;2.85;;;17.80;91.20;;;;;;5049431;28;20456;-69
2021/06/11 01:56:17;;;;;;;5.63;3.75;;;17.80;91.10;;;;;;5050050;28;20548;-69
2021/06/11 01:58:44;;;;;;;5.88;4.35;;;17.70;91.10;;;;;;5046180;28;20057;-69
2021/06/11 02:01:13;;;;;;;6.68;3.88;;;17.70;91.20;;;;;;5044501;28;20140;-69
2021/06/11 02:04:00;;;;;;;5.38;3.53;;;17.70;91.20;;;;;;5050951;28;20077;-69
2021/06/11 02:06:28;;;;;;;5.40;3.60;;;17.60;91.20;;;;;;5049387;28;20075;-69
2021/06/11 02:08:55;;;;;;;5.88;4.03;;;17.60;91.20;;;;;;5049813;28;20388;-69
2021/06/11 02:11:23;;;;;;;7.22;4.22;;;17.60;91.20;;;;;;5049803;28;20069;-69
2021/06/11 02:13:52;;;;;;;6.75;4.70;;;17.50;91.30;;;;;;5065251;28;20057;-69
2021/06/11 02:16:20;;;;;;;5.85;4.22;;;17.50;91.50;;;;;;5045805;28;20137;-69
2021/06/11 02:18:49;;;;;;;6.75;4.53;;;17.40;91.50;;;;;;5051363;28;20073;-69
2021/06/11 02:21:17;;;;;;;7.47;4.95;;;17.40;91.50;;;;;;5047958;28;20092;-69
2021/06/11 02:23:44;;;;;;;6.63;4.75;;;17.40;91.50;;;;;;5051333;28;20048;-69
2021/06/11 02:26:13;;;;;;;6.45;4.70;;;17.40;91.50;;;;;;5048565;28;20479;-69
2021/06/11 02:28:40;;;;;;;8.35;5.40;;;17.40;91.50;;;;;;5051261;28;20127;-69
2021/06/11 02:31:07;;;;;;;8.57;5.68;;;17.30;91.50;;;;;;5048580;28;20076;-69
2021/06/11 02:33:35;;;;;;;7.05;4.40;;;17.30;91.50;;;;;;5049338;28;20052;-69
2021/06/11 02:36:02;;;;;;;6.15;4.35;;;17.20;91.50;;;;;;5047754;28;20567;-69
2021/06/11 02:38:29;;;;;;;7.30;4.63;;;17.10;91.50;;;;;;5048608;28;20461;-69
2021/06/11 02:40:58;;;;;;;7.90;5.32;;;17.10;91.50;;;;;;5048339;28;20506;-69
2021/06/11 02:43:27;;;;;;;8.75;5.47;;;17.10;91.60;;;;;;5047914;28;20084;-69
2021/06/11 02:46:22;;;;;;;8.32;5.57;;;17.10;91.60;;;;;;5048307;28;20683;-69
2021/06/11 02:49:18;;;;;;;7.18;5.32;;;17.10;91.70;;;;;;5050496;28;20071;-69
2021/06/11 02:51:49;;;;;;;8.30;5.43;;;17.00;91.60;;;;;;5043193;28;20144;-69
2021/06/11 02:54:21;;;;;;;8.10;5.28;;;16.90;91.60;;;;;;5049608;28;20377;-69
2021/06/11 02:56:54;;;;;;;8.43;5.25;;;16.90;92.00;;;;;;5048161;28;20145;-69
2021/06/11 02:59:26;;;;;;;8.15;5.63;;;16.80;91.70;;;;;;5050412;28;20077;-69
2021/06/11 03:02:03;;;;;;;8.45;6.03;;;16.80;91.70;;;;;;5048391;28;20084;-69
2021/06/11 03:04:32;;;;;;;7.72;5.50;;;16.80;91.70;;;;;;5043957;28;20083;-69
2021/06/11 03:07:00;;;;;;;9.45;6.53;;;16.80;91.80;;;;;;5048518;28;20075;-69
2021/06/11 03:09:27;;;;;;;;;;;16.80;91.80;;;;;;5050200;28;20131;-69
2021/06/11 03:11:56;;;;;;;9.23;6.10;;;16.80;92.00;;;;;;5048802;28;19967;-69
2021/06/11 03:14:26;;;;;;;8.90;6.13;;;16.70;91.80;;;;;;5071103;28;20038;-69
2021/06/11 03:17:00;;;;;;;9.30;6.65;;;16.60;91.90;;;;;;5048905;28;20133;-69
2021/06/11 03:19:34;;;;;;;8.45;5.47;;;16.60;92.00;;;;;;5048825;28;20106;-69
2021/06/11 03:22:06;;;;;;;8.88;6.30;;;16.60;92.10;;;;;;5048761;28;20481;-69
2021/06/11 03:24:55;;;;;;;9.43;5.80;;;16.60;92.10;;;;;;5049532;28;20041;-69
2021/06/11 03:27:46;;;;;;;8.10;5.80;;;16.50;92.10;;;;;;5047472;28;20045;-69
2021/06/11 03:30:15;;;;;;;9.70;6.90;;;16.50;92.10;;;;;;5050316;28;20119;-69
2021/06/11 03:33:00;;;;;;;9.25;6.63;;;16.50;92.20;;;;;;5043042;28;20045;-69
2021/06/11 03:35:37;;;;;;;8.13;6.10;;;16.50;92.40;;;;;;5049692;28;20037;-69
2021/06/11 03:38:07;;;;;;;8.17;6.07;;;16.50;92.40;;;;;;5042764;28;20183;-69
2021/06/11 03:40:38;;;;;;;9.45;5.78;;;16.50;92.40;;;;;;5049463;28;20459;-69
2021/06/11 03:43:07;;;;;;;11.43;6.28;;;16.50;92.40;;;;;;5046869;28;20076;-69
2021/06/11 03:45:34;;;;;;;9.95;6.57;;;16.50;92.40;;;;;;5046993;28;20136;-69
2021/06/11 03:48:03;;;;;;;10.30;6.13;;;16.50;92.40;;;;;;5045636;28;20091;-69
2021/06/11 03:50:31;;;;;;;9.07;6.45;;;16.50;92.50;;;;;;5046567;28;20129;-69
2021/06/11 03:53:01;;;;;;;10.25;6.65;;;16.60;92.60;;;;;;5047323;28;20060;-69
2021/06/11 03:55:36;;;;;;;8.57;5.30;;;16.60;92.60;;;;;;5049069;28;20102;-69
2021/06/11 03:58:12;;;;;;;7.63;5.00;;;16.60;92.60;;;;;;5047172;28;20564;-69
2021/06/11 04:00:42;;;;;;;7.82;5.47;;;16.60;92.60;;;;;;5043001;28;20052;-69
2021/06/11 04:03:09;;;;;;;8.88;5.07;;;16.50;92.70;;;;;;5047443;28;20132;-69
2021/06/11 04:05:38;;;;;;;7.78;5.43;;;16.60;92.80;;;;;;5046530;28;20068;-69
2021/06/11 04:08:07;;;;;;;7.55;5.22;;;16.60;92.90;;;;;;5045643;28;20053;-69
2021/06/11 04:10:39;;;;;;;8.13;5.68;;;16.60;93.00;;;;;;5047301;28;20071;-69
2021/06/11 04:13:17;;;;;;;7.75;5.13;;;16.50;93.10;;;;;;5045849;28;20122;-69
2021/06/11 04:15:48;;;;;;;9.52;5.65;;;16.60;93.20;;;;;;5043204;28;20076;-69
2021/06/11 04:18:21;;;;;;;15.73;8.70;;;16.50;93.50;;;;;;5045906;28;20069;-69
2021/06/11 04:20:52;;;;;;;34.65;10.02;;;16.50;93.50;;;;;;5036919;28;20488;-69
2021/06/11 04:23:24;;;;;;;28.23;9.95;;;16.50;93.70;;;;;;5043807;28;20057;-69
2021/06/11 04:25:56;;;;;;;29.38;9.90;;;16.50;94.00;;;;;;5046756;28;20095;-69
2021/06/11 04:28:25;;;;;;;40.00;9.38;;;16.60;94.40;;;;;;5046250;28;20517;-69
2021/06/11 04:30:53;;;;;;;114.57;13.10;;;16.50;94.70;;;;;;5037829;28;20131;-69
2021/06/11 04:33:22;;;;;;;48.60;10.23;;;16.50;95.10;;;;;;5044749;28;20095;-69
2021/06/11 04:35:50;;;;;;;72.63;11.63;;;16.50;95.60;;;;;;5044795;28;20119;-69
2021/06/11 04:38:16;;;;;;;40.58;9.68;;;16.50;96.30;;;;;;5045957;28;20483;-70
2021/06/11 04:40:43;;;;;;;47.88;9.73;;;16.40;96.60;;;;;;5047965;28;20095;-68
2021/06/11 04:43:11;;;;;;;79.40;13.13;;;16.40;97.70;;;;;;5078747;28;20134;-68
2021/06/11 04:45:38;;;;;;;29.30;9.52;;;16.40;98.10;;;;;;5048097;28;20076;-69
2021/06/11 04:48:05;;;;;;;28.88;7.80;;;16.40;98.40;;;;;;5045054;28;20067;-69
2021/06/11 04:50:33;;;;;;;;;;;16.30;98.90;;;;;;5046021;28;20107;-68
2021/06/11 04:53:00;;;;;;;22.95;7.05;;;16.30;99.00;;;;;;5045777;28;19975;-68
2021/06/11 04:55:27;;;;;;;30.73;6.28;;;16.30;99.60;;;;;;5048582;28;20059;-69
2021/06/11 04:57:54;;;;;;;7.50;4.43;;;16.30;99.90;;;;;;5046748;28;20090;-69
2021/06/11 05:00:24;;;;;;;16.10;5.03;;;16.20;99.90;;;;;;5048625;28;20076;-69
2021/06/11 05:02:51;;;;;;;11.85;4.85;;;16.20;99.90;;;;;;5031886;28;20068;-69
2021/06/11 05:05:18;;;;;;;11.45;4.65;;;16.20;99.90;;;;;;5039381;28;20424;-69
2021/06/11 05:07:45;;;;;;;14.70;4.38;;;16.20;99.90;;;;;;5050936;28;20076;-69
2021/06/11 05:10:12;;;;;;;17.10;5.03;;;16.20;99.90;;;;;;5049995;28;20127;-69
2021/06/11 05:12:39;;;;;;;16.30;5.40;;;16.30;99.90;;;;;;5046933;28;20047;-69
2021/06/11 05:15:07;;;;;;;26.83;11.80;;;16.30;99.90;;;;;;5047708;28;20178;-69
2021/06/11 05:17:33;;;;;;;23.48;11.05;;;16.30;99.90;;;;;;5033434;28;20412;-69
2021/06/11 05:20:00;;;;;;;66.97;11.70;;;16.40;99.90;;;;;;5039524;28;20473;-69
2021/06/11 05:22:27;;;;;;;29.08;12.15;;;16.40;99.90;;;;;;5042161;28;20136;-69
2021/06/11 05:24:54;;;;;;;24.48;12.32;;;16.40;99.90;;;;;;5056756;28;20134;-68
2021/06/11 05:27:20;;;;;;;22.27;12.77;;;16.40;99.90;;;;;;5050870;28;20481;-68
2021/06/11 05:29:47;;;;;;;22.23;12.23;;;16.40;99.90;;;;;;5042668;28;20080;-69
2021/06/11 05:32:14;;;;;;;32.38;12.63;;;16.40;99.90;;;;;;5041009;28;20073;-70
2021/06/11 05:34:41;;;;;;;33.90;13.55;;;16.50;99.90;;;;;;5049934;28;20044;-69
2021/06/11 05:37:07;;;;;;;21.95;13.45;;;16.50;99.90;;;;;;5049500;28;20072;-69
2021/06/11 05:39:34;;;;;;;37.80;16.40;;;16.50;99.90;;;;;;5043812;28;20049;-69
2021/06/11 05:42:01;;;;;;;47.92;16.83;;;16.50;99.90;;;;;;5037786;28;20123;-69
2021/06/11 05:44:28;;;;;;;38.00;17.45;;;16.60;99.90;;;;;;5047332;28;20045;-68
2021/06/11 05:46:55;;;;;;;27.35;14.18;;;16.60;99.90;;;;;;5046714;28;20049;-69
2021/06/11 05:49:21;;;;;;;31.02;16.08;;;16.60;99.90;;;;;;5047314;28;20541;-69
2021/06/11 05:51:48;;;;;;;33.88;17.30;;;16.60;99.90;;;;;;5046077;28;20126;-69
2021/06/11 05:54:15;;;;;;;24.45;14.38;;;16.60;99.90;;;;;;5045455;28;20103;-69
2021/06/11 05:56:41;;;;;;;24.63;13.27;;;16.60;99.90;;;;;;5045297;28;20121;-69
2021/06/11 05:59:09;;;;;;;31.88;14.45;;;16.70;99.90;;;;;;5047491;28;20052;-69
2021/06/11 06:01:36;;;;;;;23.17;12.43;;;16.70;99.90;;;;;;5043448;28;20083;-69
2021/06/11 06:04:03;;;;;;;30.85;13.10;;;16.70;99.90;;;;;;5045358;28;20103;-69
2021/06/11 06:06:30;;;;;;;22.77;13.10;;;16.80;99.90;;;;;;5044679;28;20076;-69
2021/06/11 06:08:56;;;;;;;23.73;13.68;;;16.80;99.90;;;;;;5044234;28;20139;-69
2021/06/11 06:11:23;;;;;;;18.63;11.82;;;16.90;99.90;;;;;;5044119;28;20041;-68
2021/06/11 06:13:50;;;;;;;31.42;15.38;;;16.90;99.90;;;;;;5041173;28;20072;-69
2021/06/11 06:16:17;;;;;;;23.50;13.85;;;16.90;99.90;;;;;;5043426;28;20077;-69
2021/06/11 06:18:44;;;;;;;23.67;14.10;;;17.00;99.90;;;;;;5045580;28;20500;-69
2021/06/11 06:21:16;;;;;;;27.60;16.33;;;17.00;99.90;;;;;;5044151;28;20069;-68
2021/06/11 06:23:44;;;;;;;22.25;14.85;;;16.90;99.90;;;;;;5044621;28;20135;-69
2021/06/11 06:26:11;;;;;;;24.23;13.73;;;16.90;99.90;;;;;;5044288;28;20468;-69
2021/06/11 06:28:37;;;;;;;23.75;14.60;;;16.90;99.90;;;;;;5044903;28;20049;-69
2021/06/11 06:31:04;;;;;;;28.75;14.85;;;16.90;99.90;;;;;;5044099;28;20056;-69
2021/06/11 06:33:31;;;;;;;25.48;16.48;;;17.00;99.90;;;;;;5044419;28;20366;-69
2021/06/11 06:35:58;;;;;;;29.83;17.20;;;17.00;99.90;;;;;;5044148;28;20045;-68
2021/06/11 06:38:25;;;;;;;32.22;19.52;;;17.00;99.90;;;;;;5045674;28;20463;-69
2021/06/11 06:40:59;;;;;;;27.27;16.92;;;17.10;99.90;;;;;;5042426;28;20079;-69
2021/06/11 06:43:27;;;;;;;27.48;16.98;;;17.10;99.90;;;;;;5043651;28;20497;-68
2021/06/11 06:45:56;;;;;;;27.25;15.85;;;17.10;99.90;;;;;;5043631;28;20072;-69
2021/06/11 06:48:23;;;;;;;26.45;16.05;;;17.10;99.90;;;;;;5045417;28;20049;-69
2021/06/11 06:50:49;;;;;;;26.85;16.02;;;17.20;99.90;;;;;;5043988;28;20503;-69
2021/06/11 06:53:18;;;;;;;31.73;19.70;;;17.30;99.90;;;;;;5041302;28;20102;-69
2021/06/11 06:55:45;;;;;;;24.73;14.73;;;17.30;99.90;;;;;;5043237;28;20140;-68
2021/06/11 06:58:12;;;;;;;24.83;15.57;;;17.30;99.90;;;;;;5044575;28;20049;-69
2021/06/11 07:00:39;;;;;;;25.35;15.73;;;17.30;99.90;;;;;;5076194;28;20397;-69
2021/06/11 07:03:06;;;;;;;33.55;19.63;;;17.30;99.90;;;;;;5042437;28;20076;-68
2021/06/11 07:05:33;;;;;;;28.23;17.52;;;17.30;99.90;;;;;;5045972;28;20053;-69
2021/06/11 07:08:00;;;;;;;32.00;19.95;;;17.40;99.90;;;;;;5043377;28;20040;-68
2021/06/11 07:10:26;;;;;;;28.63;16.83;;;17.40;99.90;;;;;;5045208;28;20140;-69
2021/06/11 07:12:53;;;;;;;27.90;17.08;;;17.40;99.90;;;;;;5041508;28;20081;-69
2021/06/11 07:15:20;;;;;;;27.00;15.93;;;17.40;99.90;;;;;;5043610;28;20088;-69
2021/06/11 07:17:47;;;;;;;26.58;15.38;;;17.40;99.90;;;;;;5040860;28;20099;-69
2021/06/11 07:20:14;;;;;;;35.20;19.95;;;17.50;99.90;;;;;;5045154;28;20481;-69
2021/06/11 07:22:41;;;;;;;28.73;17.90;;;17.50;99.90;;;;;;5043370;28;20051;-69
2021/06/11 07:25:08;;;;;;;38.17;22.90;;;17.50;99.90;;;;;;5042742;28;20060;-69
2021/06/11 07:27:35;;;;;;;34.15;22.67;;;17.60;99.90;;;;;;5040102;28;20135;-69
2021/06/11 07:30:07;;;;;;;34.97;21.15;;;17.60;99.90;;;;;;5044458;28;20152;-69
2021/06/11 07:32:40;;;;;;;30.63;18.42;;;17.50;99.90;;;;;;5041673;28;20052;-69
2021/06/11 07:35:07;;;;;;;30.25;18.50;;;17.60;99.90;;;;;;5044195;28;20079;-69
2021/06/11 07:37:35;;;;;;;29.73;18.53;;;17.60;99.90;;;;;;5042092;28;20156;-69
2021/06/11 07:40:07;;;;;;;26.00;16.48;;;17.60;99.90;;;;;;5044564;28;20511;-69
2021/06/11 07:42:33;;;;;;;29.25;19.35;;;17.70;99.90;;;;;;5041861;28;20135;-69
2021/06/11 07:45:01;;;;;;;27.95;19.17;;;17.70;99.90;;;;;;5043322;28;20052;-68
2021/06/11 07:47:27;;;;;;;33.45;21.20;;;17.80;99.90;;;;;;5040957;28;20131;-69
2021/06/11 07:49:54;;;;;;;34.45;21.67;;;17.80;99.90;;;;;;5043871;28;20168;-69
2021/06/11 07:52:21;;;;;;;37.88;24.35;;;17.90;99.90;;;;;;5040873;28;20132;-68
2021/06/11 07:54:47;;;;;;;35.50;23.75;;;17.90;99.90;;;;;;5040797;28;20041;-69
2021/06/11 07:57:14;;;;;;;36.70;25.30;;;17.90;99.90;;;;;;5040370;28;20130;-68
2021/06/11 07:59:42;;;;;;;35.80;25.42;;;17.90;99.90;;;;;;5043887;28;20147;-69
2021/06/11 08:02:10;;;;;;;41.43;27.00;;;17.90;99.90;;;;;;5056480;28;20459;-68
2021/06/11 08:04:38;;;;;;;43.88;28.58;;;17.90;99.90;;;;;;5043407;28;20075;-69
2021/06/11 08:07:04;;;;;;;36.42;23.52;;;17.90;99.90;;;;;;5041319;28;20504;-68
2021/06/11 08:09:33;;;;;;;40.55;25.55;;;17.90;99.90;;;;;;5044366;28;20135;-68
2021/06/11 08:12:00;;;;;;;32.63;22.30;;;17.90;99.90;;;;;;5046204;28;20098;-69
2021/06/11 08:14:26;;;;;;;37.90;25.05;;;18.00;99.90;;;;;;5043485;28;20480;-69
2021/06/11 08:16:53;;;;;;;38.72;23.88;;;17.90;99.90;;;;;;5041495;28;20132;-69
2021/06/11 08:19:20;;;;;;;38.58;22.98;;;18.00;99.90;;;;;;5043470;28;20048;-69
2021/06/11 08:21:47;;;;;;;31.75;21.70;;;18.00;99.90;;;;;;5072910;28;20531;-68
2021/06/11 08:24:14;;;;;;;30.95;20.67;;;18.10;99.90;;;;;;5042640;28;20739;-68
2021/06/11 08:26:41;;;;;;;35.70;22.25;;;18.20;99.90;;;;;;5029058;28;20083;-68
2021/06/11 08:29:07;;;;;;;36.15;23.55;;;18.20;99.90;;;;;;5042593;28;20080;-69
2021/06/11 08:31:34;;;;;;;43.67;28.95;;;18.30;99.90;;;;;;5039966;28;20154;-68
2021/06/11 08:34:01;;;;;;;44.00;27.50;;;18.40;99.90;;;;;;5074714;28;20083;-68
2021/06/11 08:36:28;;;;;;;38.50;24.95;;;18.50;99.90;;;;;;5042066;28;20077;-69
2021/06/11 08:38:55;;;;;;;38.33;24.88;;;18.50;99.90;;;;;;5047421;28;20199;-69
2021/06/11 08:41:24;;;;;;;36.35;23.80;;;18.50;99.90;;;;;;5045192;28;20056;-69
2021/06/11 08:43:55;;;;;;;34.28;22.58;;;18.50;99.90;;;;;;5045956;28;20397;-69
2021/06/11 08:46:22;;;;;;;35.60;22.40;;;18.50;99.90;;;;;;5046731;28;20080;-70
2021/06/11 08:48:49;;;;;;;40.45;26.33;;;18.50;99.90;;;;;;5047999;28;20543;-69
2021/06/11 08:51:16;;;;;;;33.05;23.08;;;18.60;99.90;;;;;;5044746;28;20143;-69
2021/06/11 08:53:43;;;;;;;32.85;20.33;;;18.60;99.90;;;;;;5046329;28;20140;-69
2021/06/11 08:56:10;;;;;;;31.58;20.25;;;18.70;99.90;;;;;;5045203;28;20045;-69
2021/06/11 08:58:39;;;;;;;33.45;19.80;;;18.80;99.90;;;;;;5046620;28;20139;-70
2021/06/11 09:01:07;;;;;;;36.78;25.85;;;18.90;99.90;;;;;;5045079;28;20092;-68
2021/06/11 09:03:48;;;;;;;33.10;22.60;;;19.00;99.90;;;;;;5046315;28;20037;-69
2021/06/11 09:06:17;;;;;;;33.47;21.95;;;19.00;99.90;;;;;;5031210;28;20086;-69
2021/06/11 09:08:51;;;;;;;31.45;22.48;;;19.10;99.90;;;;;;5045510;28;20132;-69
2021/06/11 09:11:23;;;;;;;28.88;19.85;;;19.20;99.90;;;;;;5044835;28;20099;-69
2021/06/11 09:14:04;;;;;;;33.17;21.45;;;19.30;99.90;;;;;;5044545;28;20476;-68
2021/06/11 09:16:48;;;;;;;28.95;20.40;;;19.40;99.90;;;;;;5045287;28;20158;-69
2021/06/11 09:19:23;;;;;;;27.67;19.08;;;19.50;99.90;;;;;;5047037;28;20484;-70
2021/06/11 09:21:51;;;;;;;28.35;19.42;;;19.60;99.90;;;;;;5044636;28;20080;-69
2021/06/11 09:24:32;;;;;;;31.42;23.13;;;19.70;99.90;;;;;;5045805;28;20076;-69
2021/06/11 09:27:01;;;;;;;31.35;22.48;;;19.80;99.90;;;;;;5045042;28;20408;-69
2021/06/11 09:29:31;;;;;;;;;;;19.90;99.90;;;;;;5046479;28;20452;-69
2021/06/11 09:32:18;;;;;;;29.33;20.88;;;20.00;99.90;;;;;;5041302;28;19925;-69
2021/06/11 09:34:51;;;;;;;35.17;25.90;;;20.00;99.90;;;;;;5042631;28;20080;-69
2021/06/11 09:37:20;;;;;;;35.28;25.08;;;20.10;99.90;;;;;;5044189;28;20083;-70
2021/06/11 09:39:55;;;;;;;32.47;24.67;;;20.10;99.90;;;;;;5045043;28;20132;-68
2021/06/11 09:42:33;;;;;;;40.15;27.70;;;20.10;99.90;;;;;;5043646;28;20126;-69
2021/06/11 09:45:10;;;;;;;32.70;25.55;;;20.20;99.90;;;;;;5046347;28;20135;-70
2021/06/11 09:47:53;;;;;;;37.92;27.17;;;20.30;99.90;;;;;;5043888;28;20060;-69
2021/06/11 09:50:39;;;;;;;34.83;25.10;;;20.40;99.90;;;;;;5044818;28;20488;-69
2021/06/11 09:53:07;;;;;;;39.45;27.30;;;20.50;99.90;;;;;;5042578;28;20539;-69
2021/06/11 09:55:54;;;;;;;35.58;24.55;;;20.60;99.90;;;;;;5046464;28;20076;-69
2021/06/11 09:58:20;;;;;;;41.63;29.08;;;20.70;99.90;;;;;;5046392;28;20107;-69
2021/06/11 10:01:01;;;;;;;34.72;25.38;;;20.80;99.90;;;;;;5045362;28;20484;-68
2021/06/11 10:03:34;;;;;;;30.23;22.52;;;20.80;99.90;;;;;;5044590;28;20053;-69
2021/06/11 10:06:03;;;;;;;32.95;23.58;;;20.90;99.90;;;;;;5056582;28;20049;-69
2021/06/11 10:08:30;;;;;;;34.33;26.70;;;21.00;99.90;;;;;;5041398;28;20135;-69
2021/06/11 10:10:59;;;;;;;39.95;29.00;;;21.10;99.90;;;;;;5042556;28;20080;-69
2021/06/11 10:13:29;;;;;;;40.78;29.63;;;21.10;99.90;;;;;;5045019;28;20392;-69
2021/06/11 10:15:59;;;;;;;35.75;26.02;;;21.20;99.90;;;;;;5036670;28;20069;-69
2021/06/11 10:18:27;;;;;;;35.47;25.02;;;21.20;99.90;;;;;;5056409;28;20046;-68
2021/06/11 10:20:53;;;;;;;37.88;27.00;;;21.30;99.90;;;;;;5044458;28;20140;-69
2021/06/11 10:23:23;;;;;;;40.80;28.08;;;21.30;99.90;;;;;;5042558;28;20472;-69
2021/06/11 10:25:53;;;;;;;34.25;24.38;;;21.40;99.90;;;;;;5043826;28;20073;-68
2021/06/11 10:28:24;;;;;;;31.65;23.20;;;21.40;99.90;;;;;;5076374;28;20049;-70
2021/06/11 10:31:01;;;;;;;31.55;21.63;;;21.40;99.90;;;;;;5042062;28;20076;-68
2021/06/11 10:33:52;;;;;;;31.75;23.08;;;21.40;99.90;;;;;;5044967;28;20048;-69
2021/06/11 10:36:25;;;;;;;28.60;21.30;;;21.40;99.90;;;;;;5044801;28;20118;-69
2021/06/11 10:38:56;;;;;;;28.70;20.08;;;21.40;99.90;;;;;;5045026;28;20562;-69
2021/06/11 10:41:24;;;;;;;29.40;21.50;;;21.50;99.90;;;;;;5076840;28;20069;-69
2021/06/11 10:43:52;;;;;;;31.98;23.45;;;21.50;99.90;;;;;;5045140;28;20057;-69
2021/06/11 10:46:24;;;;;;;33.05;23.90;;;21.50;99.90;;;;;;5042824;28;20052;-69
2021/06/11 10:49:01;;;;;;;30.55;22.55;;;21.60;99.90;;;;;;5045540;28;20118;-70
2021/06/11 10:51:42;;;;;;;35.10;22.20;;;21.50;99.90;;;;;;5043523;28;20057;-69
2021/06/11 10:54:15;;;;;;;28.90;22.05;;;21.50;99.90;;;;;;5044127;28;20087;-69
2021/06/11 10:57:11;;;;;;;28.15;21.20;;;21.50;99.90;;;;;;5042984;28;20673;-69
2021/06/11 10:59:44;;;;;;;34.03;25.48;;;21.50;99.90;;;;;;5038253;28;20876;-70
2021/06/11 11:02:12;;;;;;;28.48;21.90;;;21.60;99.90;;;;;;5027395;28;20115;-69
2021/06/11 11:04:42;;;;;;;27.80;22.02;;;21.70;99.90;;;;;;5044011;28;20122;-69
2021/06/11 11:07:24;;;;;;;26.50;19.50;;;21.80;99.90;;;;;;5043190;28;20045;-69
2021/06/11 11:09:55;;;;;;;24.15;18.67;;;21.90;99.90;;;;;;5044676;28;20045;-69
2021/06/11 11:12:32;;;;;;;22.35;17.10;;;22.00;99.90;;;;;;5043021;28;20171;-69
2021/06/11 11:15:00;;;;;;;22.73;17.83;;;22.10;99.90;;;;;;5044145;28;20045;-69
2021/06/11 11:17:27;;;;;;;21.23;16.60;;;22.10;99.90;;;;;;5042923;28;20500;-70
2021/06/11 11:20:02;;;;;;;22.08;18.52;;;22.10;99.90;;;;;;5043347;28;20393;-69
2021/06/11 11:22:39;;;;;;;24.77;19.13;;;22.10;99.90;;;;;;5030584;28;20430;-69
2021/06/11 11:25:15;;;;;;;23.10;17.35;;;22.10;99.90;;;;;;5044818;28;20076;-69
2021/06/11 11:27:47;;;;;;;23.23;17.35;;;22.10;99.90;;;;;;5075466;28;20464;-68
2021/06/11 11:30:15;;;;;;;23.75;18.77;;;22.10;99.90;;;;;;5030393;28;20537;-69
2021/06/11 11:32:41;;;;;;;21.88;17.58;;;22.20;99.90;;;;;;5041855;28;20140;-71
2021/06/11 11:35:09;;;;;;;24.00;19.67;;;22.30;99.90;;;;;;5045675;28;20143;-68
2021/06/11 11:37:36;;;;;;;27.52;21.60;;;22.30;99.90;;;;;;5043537;28;20037;-69
2021/06/11 11:40:03;;;;;;;21.58;17.08;;;22.40;99.90;;;;;;5044732;28;20452;-70
2021/06/11 11:42:30;;;;;;;22.35;16.30;;;22.40;99.90;;;;;;5043516;28;20083;-69
2021/06/11 11:44:57;;;;;;;21.88;17.27;;;22.40;99.90;;;;;;5045399;28;20069;-69
2021/06/11 11:47:24;;;;;;;18.45;15.38;;;22.50;99.90;;;;;;5042652;28;20559;-69
2021/06/11 11:49:51;;;;;;;20.10;15.27;;;22.60;99.90;;;;;;5043685;28;20049;-70
2021/06/11 11:52:29;;;;;;;;;;;22.60;99.90;;;;;;5041996;28;20408;-70
2021/06/11 11:54:56;;;;;;;18.05;13.77;;;22.60;99.90;;;;;;5042887;28;20353;-69
2021/06/11 11:57:23;;;;;;;19.15;15.80;;;22.50;99.90;;;;;;5042226;28;20547;-70
2021/06/11 11:59:50;;;;;;;19.27;14.85;;;22.50;99.90;;;;;;5044605;28;20138;-70
2021/06/11 12:02:18;;;;;;;18.30;14.48;;;22.50;99.90;;;;;;5041432;28;20072;-69
2021/06/11 12:04:45;;;;;;;22.17;17.58;;;22.40;99.90;;;;;;5043303;28;20075;-69
2021/06/11 12:07:12;;;;;;;19.88;16.08;;;22.40;99.90;;;;;;5041798;28;20535;-69
2021/06/11 12:09:39;;;;;;;16.88;14.25;;;22.40;99.90;;;;;;5042197;28;23254;-69
2021/06/11 12:12:06;;;;;;;17.60;14.02;;;22.40;99.90;;;;;;5042170;28;20449;-69
2021/06/11 12:14:33;;;;;;;16.20;13.60;;;22.40;99.90;;;;;;5040882;28;20088;-69
2021/06/11 12:16:59;;;;;;;14.75;12.35;;;22.50;99.90;;;;;;5045133;28;20049;-70
2021/06/11 12:19:26;;;;;;;18.83;13.38;;;22.40;99.90;;;;;;5042357;28;20489;-69
2021/06/11 12:21:53;;;;;;;17.42;14.68;;;22.50;99.90;;;;;;5042151;28;20132;-69
2021/06/11 12:24:20;;;;;;;17.95;14.20;;;22.50;99.90;;;;;;5042388;28;20175;-69
2021/06/11 12:26:46;;;;;;;15.60;12.82;;;22.50;99.90;;;;;;5042155;28;20519;-69
2021/06/11 12:29:18;;;;;;;16.40;13.07;;;22.60;99.90;;;;;;5049045;28;20061;-69
2021/06/11 12:31:45;;;;;;;15.93;12.57;;;22.60;99.90;;;;;;5040589;28;20076;-69
2021/06/11 12:34:12;;;;;;;16.17;14.48;;;22.60;99.90;;;;;;5043830;28;20071;-68
2021/06/11 12:36:38;;;;;;;15.23;13.43;;;22.60;99.90;;;;;;5043065;28;20175;-70
2021/06/11 12:39:05;;;;;;;16.63;12.60;;;22.70;99.90;;;;;;5028527;28;20080;-70
2021/06/11 12:41:36;;;;;;;16.73;13.10;;;22.70;99.90;;;;;;5042559;28;20426;-69
2021/06/11 12:44:15;;;;;;;16.08;12.77;;;22.80;99.90;;;;;;5042620;28;20076;-69
2021/06/11 12:46:48;;;;;;;14.95;11.63;;;22.90;99.90;;;;;;5041360;28;20041;-69
2021/06/11 12:49:16;;;;;;;15.52;12.65;;;23.00;99.90;;;;;;5043847;28;20483;-69